Time;durP1;ratioP1;P1;durP2;ratioP2;P2;SDS_P1;SDS_P2;PMS_P1;PMS_P2;Temp;Humidity;BMP_temperature;BMP_pressure;BME280_temperature;BME280_humidity;BME280_pressure;Samples;Min_cycle;Max_cycle;Signal;HPM_P1;HPM_P2
2023/06/24 00:02:11;;;;;;;4.22;3.35;;;15.90;99.90;;;;;;6219089;23;20039;-86
2023/06/24 00:04:36;;;;;;;5.28;3.60;;;15.90;99.90;;;;;;6219292;23;20024;-87
2023/06/24 00:07:02;;;;;;;4.43;3.20;;;15.90;99.90;;;;;;6246468;23;20016;-86
2023/06/24 00:09:29;;;;;;;4.82;3.42;;;15.90;99.90;;;;;;6247141;23;20335;-87
2023/06/24 00:11:56;;;;;;;4.90;3.95;;;15.80;99.90;;;;;;6247302;23;20391;-89
2023/06/24 00:14:24;;;;;;;4.90;3.25;;;15.80;99.90;;;;;;6246573;23;20016;-87
2023/06/24 00:16:54;;;;;;;4.25;2.72;;;15.80;99.90;;;;;;6219145;23;20094;-86
2023/06/24 00:19:24;;;;;;;3.13;2.50;;;15.80;99.90;;;;;;6246048;23;20019;-86
2023/06/24 00:21:51;;;;;;;3.45;2.60;;;15.80;99.90;;;;;;6246066;23;20024;-86
2023/06/24 00:24:25;;;;;;;3.70;2.50;;;15.80;99.90;;;;;;6245556;23;20070;-88
2023/06/24 00:26:51;;;;;;;3.97;2.60;;;15.80;99.90;;;;;;6218731;23;20028;-87
2023/06/24 00:29:17;;;;;;;3.60;2.30;;;15.70;99.90;;;;;;6218436;23;20028;-88
2023/06/24 00:31:43;;;;;;;4.40;2.60;;;15.70;99.90;;;;;;6245717;23;20477;-86
2023/06/24 00:34:09;;;;;;;4.43;2.42;;;15.70;99.90;;;;;;6218684;23;20335;-87
2023/06/24 00:36:38;;;;;;;3.00;2.30;;;15.70;99.90;;;;;;6218491;23;20024;-90
2023/06/24 00:39:05;;;;;;;2.92;2.20;;;15.70;99.90;;;;;;6218927;23;20091;-88
2023/06/24 00:41:31;;;;;;;2.72;1.95;;;15.70;99.90;;;;;;6245877;23;20039;-88
2023/06/24 00:43:58;;;;;;;3.15;2.40;;;15.70;99.90;;;;;;6218692;23;20027;-90
2023/06/24 00:46:27;;;;;;;3.97;3.05;;;15.60;99.90;;;;;;6245442;23;20024;-86
2023/06/24 00:48:55;;;;;;;5.10;3.72;;;15.60;99.90;;;;;;6246273;23;20378;-87
2023/06/24 00:51:24;;;;;;;4.07;2.88;;;15.60;99.90;;;;;;6245774;23;20112;-85
2023/06/24 00:53:52;;;;;;;4.38;2.67;;;15.60;99.90;;;;;;6219527;23;20524;-84
2023/06/24 00:56:21;;;;;;;3.80;2.92;;;15.60;99.90;;;;;;6246757;23;20052;-83
2023/06/24 00:58:47;;;;;;;4.03;2.95;;;15.60;99.90;;;;;;6218993;23;20346;-86
2023/06/24 01:01:14;;;;;;;5.15;3.10;;;15.50;99.90;;;;;;6193515;23;20032;-85
2023/06/24 01:03:40;;;;;;;3.53;2.80;;;15.50;99.90;;;;;;6218786;23;20090;-84
2023/06/24 01:06:08;;;;;;;6.35;3.58;;;15.50;99.90;;;;;;6246152;23;20020;-85
2023/06/24 01:08:34;;;;;;;4.53;2.97;;;15.50;99.90;;;;;;6245735;23;20042;-84
2023/06/24 01:11:00;;;;;;;6.32;3.60;;;15.40;99.90;;;;;;6219247;23;20347;-85
2023/06/24 01:13:26;;;;;;;4.78;3.30;;;15.40;99.90;;;;;;6217504;23;20451;-85
2023/06/24 01:15:52;;;;;;;4.70;3.13;;;15.40;99.90;;;;;;6218374;23;20020;-84
2023/06/24 01:18:42;;;;;;;4.25;2.83;;;15.40;99.90;;;;;;6218504;23;20102;-84
2023/06/24 01:21:22;;;;;;;5.18;2.72;;;15.40;99.90;;;;;;6245420;23;20042;-84
2023/06/24 01:24:17;;;;;;;4.88;3.30;;;15.30;99.90;;;;;;6218709;23;20028;-85
2023/06/24 01:27:00;;;;;;;4.00;2.58;;;15.30;99.90;;;;;;6218509;23;20028;-85
2023/06/24 01:29:44;;;;;;;3.85;2.85;;;15.30;99.90;;;;;;6244750;23;20095;-85
2023/06/24 01:32:30;;;;;;;5.05;3.58;;;15.30;99.90;;;;;;6218258;23;20024;-84
2023/06/24 01:35:09;;;;;;;4.85;3.10;;;15.20;99.90;;;;;;6218391;23;20024;-86
2023/06/24 01:37:43;;;;;;;4.70;3.67;;;15.20;99.90;;;;;;6218554;23;20086;-84
2023/06/24 01:40:34;;;;;;;3.17;2.67;;;15.10;99.90;;;;;;6245398;23;20020;-85
2023/06/24 01:43:03;;;;;;;4.25;2.70;;;15.10;99.90;;;;;;6218576;23;20111;-84
2023/06/24 01:45:36;;;;;;;3.15;2.05;;;15.20;99.90;;;;;;6245463;23;20012;-84
2023/06/24 01:48:28;;;;;;;2.67;2.20;;;15.20;99.90;;;;;;6218136;23;20020;-84
2023/06/24 01:50:57;;;;;;;2.15;1.60;;;15.10;99.90;;;;;;6217798;23;20072;-84
2023/06/24 01:53:24;;;;;;;2.15;1.48;;;15.10;99.90;;;;;;6245380;23;20031;-84
2023/06/24 01:55:52;;;;;;;2.22;1.63;;;15.10;99.90;;;;;;6218477;23;20016;-84
2023/06/24 01:58:21;;;;;;;2.83;1.63;;;15.10;99.90;;;;;;6244921;23;20087;-87
2023/06/24 02:00:48;;;;;;;2.60;1.42;;;15.10;99.90;;;;;;6217981;23;20081;-84
2023/06/24 02:03:15;;;;;;;1.30;1.00;;;15.00;99.90;;;;;;6245227;23;20091;-84
2023/06/24 02:05:42;;;;;;;2.08;1.25;;;15.00;99.90;;;;;;6217663;23;20079;-85
2023/06/24 02:08:10;;;;;;;2.08;1.42;;;14.90;99.90;;;;;;6244685;23;20509;-85
2023/06/24 02:10:40;;;;;;;1.60;1.10;;;14.90;99.90;;;;;;6244873;23;20020;-84
2023/06/24 02:13:09;;;;;;;1.00;0.90;;;14.90;99.90;;;;;;6245144;23;20013;-84
2023/06/24 02:15:38;;;;;;;1.83;0.93;;;14.80;99.90;;;;;;6244969;23;20028;-84
2023/06/24 02:18:05;;;;;;;1.23;0.90;;;14.80;99.90;;;;;;6217825;23;20455;-88
2023/06/24 02:20:32;;;;;;;1.00;0.70;;;14.80;99.90;;;;;;6244984;23;20059;-84
2023/06/24 02:22:59;;;;;;;2.45;1.23;;;14.70;99.90;;;;;;6217982;23;20028;-86
2023/06/24 02:25:26;;;;;;;3.10;1.30;;;14.70;99.90;;;;;;6219175;23;20455;-83
2023/06/24 02:27:54;;;;;;;2.40;1.30;;;14.70;99.90;;;;;;6247079;23;20020;-84
2023/06/24 02:30:21;;;;;;;1.58;1.20;;;14.60;99.90;;;;;;6246776;23;20469;-84
2023/06/24 02:32:47;;;;;;;1.50;1.00;;;14.60;99.90;;;;;;6247023;23;20055;-83
2023/06/24 02:35:13;;;;;;;2.20;1.27;;;14.60;99.90;;;;;;6219871;23;20020;-84
2023/06/24 02:37:39;;;;;;;2.65;1.00;;;14.60;99.90;;;;;;6219444;23;20355;-84
2023/06/24 02:40:07;;;;;;;2.33;1.70;;;14.60;99.90;;;;;;6246845;23;20088;-84
2023/06/24 02:42:33;;;;;;;1.98;1.25;;;14.60;99.90;;;;;;6246961;23;20347;-86
2023/06/24 02:44:59;;;;;;;2.17;1.40;;;14.50;99.90;;;;;;6219722;23;20024;-84
2023/06/24 02:47:26;;;;;;;2.47;1.52;;;14.50;99.90;;;;;;6246605;23;20019;-84
2023/06/24 02:49:53;;;;;;;2.75;1.67;;;14.50;99.90;;;;;;6246675;23;20082;-84
2023/06/24 02:52:19;;;;;;;3.65;1.67;;;14.50;99.90;;;;;;6246654;23;20059;-86
2023/06/24 02:54:45;;;;;;;3.65;1.77;;;14.50;99.90;;;;;;6219307;23;20365;-85
2023/06/24 02:57:14;;;;;;;2.80;2.17;;;14.50;99.90;;;;;;6219484;23;20016;-85
2023/06/24 02:59:39;;;;;;;3.88;2.58;;;14.50;99.90;;;;;;6246028;23;20052;-85
2023/06/24 03:02:06;;;;;;;3.13;1.98;;;14.50;99.90;;;;;;6246441;23;20070;-85
2023/06/24 03:04:32;;;;;;;4.30;1.95;;;14.40;99.90;;;;;;6246473;23;20438;-84
2023/06/24 03:06:59;;;;;;;2.38;1.80;;;14.40;99.90;;;;;;6194486;23;20107;-84
2023/06/24 03:09:26;;;;;;;2.83;2.00;;;14.40;99.90;;;;;;6219412;23;20016;-84
2023/06/24 03:11:53;;;;;;;4.13;2.58;;;14.40;99.90;;;;;;6246739;23;20027;-84
2023/06/24 03:14:19;;;;;;;3.10;2.10;;;14.50;99.90;;;;;;6219725;23;20031;-85
2023/06/24 03:16:45;;;;;;;3.05;1.77;;;14.40;99.90;;;;;;6246596;23;20028;-85
2023/06/24 03:19:10;;;;;;;3.10;2.30;;;14.40;99.90;;;;;;6219528;23;20020;-85
2023/06/24 03:21:36;;;;;;;3.95;2.20;;;14.40;99.90;;;;;;6246403;23;20024;-84
2023/06/24 03:24:02;;;;;;;3.75;2.50;;;14.40;99.90;;;;;;6194886;23;20350;-85
2023/06/24 03:26:39;;;;;;;3.65;2.38;;;14.40;99.90;;;;;;6246669;23;20020;-84
2023/06/24 03:29:07;;;;;;;4.32;2.85;;;14.40;99.90;;;;;;6219394;23;20077;-85
2023/06/24 03:31:32;;;;;;;4.00;2.67;;;14.50;99.90;;;;;;6247017;23;20022;-85
2023/06/24 03:33:58;;;;;;;4.63;3.08;;;14.40;99.90;;;;;;6219531;23;20020;-83
2023/06/24 03:36:24;;;;;;;5.43;2.88;;;14.40;99.90;;;;;;6245573;23;20096;-84
2023/06/24 03:38:50;;;;;;;4.85;3.22;;;14.40;99.90;;;;;;6246013;23;20016;-85
2023/06/24 03:41:16;;;;;;;4.47;2.88;;;14.40;99.90;;;;;;6246281;23;20020;-85
2023/06/24 03:43:43;;;;;;;5.88;3.60;;;14.40;99.90;;;;;;6218995;23;20024;-84
2023/06/24 03:46:09;;;;;;;4.70;2.95;;;14.40;99.90;;;;;;6246204;23;20020;-85
2023/06/24 03:48:35;;;;;;;5.13;3.30;;;14.40;99.90;;;;;;6245551;23;20016;-83
2023/06/24 03:51:01;;;;;;;5.75;2.97;;;14.50;99.90;;;;;;6198497;23;20112;-84
2023/06/24 03:53:27;;;;;;;5.47;3.45;;;14.50;99.90;;;;;;6215668;23;20056;-87
2023/06/24 03:55:52;;;;;;;4.22;2.92;;;14.50;99.90;;;;;;6188506;23;20112;-85
2023/06/24 03:58:20;;;;;;;4.85;3.30;;;14.50;99.90;;;;;;6215534;23;20391;-84
2023/06/24 04:00:49;;;;;;;4.60;2.67;;;14.50;99.90;;;;;;6189030;23;20036;-86
2023/06/24 04:03:18;;;;;;;6.97;3.33;;;14.50;99.90;;;;;;6215869;23;20096;-85
2023/06/24 04:05:44;;;;;;;7.05;3.30;;;14.50;99.90;;;;;;6215618;23;20027;-84
2023/06/24 04:08:10;;;;;;;5.38;3.28;;;14.60;99.90;;;;;;6188480;23;20024;-85
2023/06/24 04:10:35;;;;;;;4.32;2.80;;;14.60;99.90;;;;;;6188661;23;20095;-86
2023/06/24 04:13:01;;;;;;;4.03;2.78;;;14.60;99.90;;;;;;6214849;23;20021;-85
2023/06/24 04:15:27;;;;;;;4.32;2.80;;;14.70;99.90;;;;;;6188401;23;20032;-86
2023/06/24 04:17:52;;;;;;;3.42;2.80;;;14.60;99.90;;;;;;6163698;23;20078;-85
2023/06/24 04:20:18;;;;;;;5.57;2.83;;;14.60;99.90;;;;;;6215225;23;20028;-84
2023/06/24 04:22:44;;;;;;;6.20;3.22;;;14.60;99.90;;;;;;6214674;23;20044;-86
2023/06/24 04:25:10;;;;;;;5.18;3.15;;;14.70;99.90;;;;;;6215053;23;20099;-85
2023/06/24 04:27:36;;;;;;;4.72;2.83;;;14.80;99.90;;;;;;6189097;23;20024;-85
2023/06/24 04:30:03;;;;;;;4.18;2.80;;;14.80;99.90;;;;;;6214602;23;20073;-84
2023/06/24 04:32:29;;;;;;;4.97;3.08;;;14.80;99.90;;;;;;6188329;23;20024;-86
2023/06/24 04:34:55;;;;;;;8.27;4.90;;;14.90;99.90;;;;;;6188041;23;20336;-87
2023/06/24 04:37:20;;;;;;;6.90;4.20;;;14.90;99.90;;;;;;6188327;23;20024;-86
2023/06/24 04:39:47;;;;;;;6.90;4.68;;;15.00;99.90;;;;;;6187821;23;20091;-85
2023/06/24 04:42:14;;;;;;;6.28;3.97;;;15.10;99.90;;;;;;6213897;23;20336;-84
2023/06/24 04:44:40;;;;;;;8.10;5.40;;;15.10;99.90;;;;;;6215188;23;20052;-85
2023/06/24 04:47:06;;;;;;;6.82;4.72;;;15.20;99.90;;;;;;6188382;23;20024;-86
2023/06/24 04:49:31;;;;;;;7.57;5.03;;;15.30;99.90;;;;;;6164850;23;20024;-84
2023/06/24 04:52:00;;;;;;;7.15;4.70;;;15.40;99.90;;;;;;6245321;23;20020;-85
2023/06/24 04:54:26;;;;;;;8.00;4.25;;;15.40;99.90;;;;;;6218525;23;20067;-87
2023/06/24 04:56:55;;;;;;;6.20;4.57;;;15.50;99.90;;;;;;6218354;23;20121;-84
2023/06/24 04:59:23;;;;;;;8.40;5.53;;;15.60;99.90;;;;;;6218531;23;20343;-85
2023/06/24 05:01:49;;;;;;;9.38;5.30;;;15.70;99.90;;;;;;6193504;23;20024;-85
2023/06/24 05:04:15;;;;;;;7.45;4.97;;;15.80;99.90;;;;;;6246404;23;20070;-83
2023/06/24 05:06:40;;;;;;;7.78;5.07;;;15.80;99.90;;;;;;6219067;23;20020;-87
2023/06/24 05:09:06;;;;;;;7.32;5.07;;;15.90;99.90;;;;;;6219593;23;20020;-84
2023/06/24 05:11:32;;;;;;;6.75;4.72;;;16.10;99.90;;;;;;6246196;23;20031;-86
2023/06/24 05:13:58;;;;;;;6.38;4.18;;;16.20;99.90;;;;;;6218789;23;20324;-87
2023/06/24 05:16:24;;;;;;;5.60;3.88;;;16.30;99.90;;;;;;6218869;23;20443;-89
2023/06/24 05:18:50;;;;;;;6.40;4.25;;;16.40;99.90;;;;;;6245536;23;20016;-90
2023/06/24 05:21:16;;;;;;;6.45;4.55;;;16.50;99.90;;;;;;6245430;23;20024;-87
2023/06/24 05:23:42;;;;;;;6.72;4.10;;;16.60;99.90;;;;;;6245493;23;20017;-85
2023/06/24 05:26:07;;;;;;;6.78;4.38;;;16.70;99.90;;;;;;6217649;23;20459;-88
2023/06/24 05:28:33;;;;;;;5.22;3.95;;;16.80;99.90;;;;;;6218337;23;20459;-88
2023/06/24 05:30:59;;;;;;;7.80;4.47;;;16.90;99.90;;;;;;6218039;23;20098;-87
2023/06/24 05:33:25;;;;;;;5.57;4.22;;;17.10;99.90;;;;;;6217892;23;20016;-86
2023/06/24 05:35:51;;;;;;;7.03;4.55;;;17.20;99.90;;;;;;6245361;23;20020;-87
2023/06/24 05:38:17;;;;;;;5.93;4.35;;;17.30;99.90;;;;;;6217897;23;20016;-87
2023/06/24 05:40:42;;;;;;;6.15;4.50;;;17.50;99.90;;;;;;6245009;23;20024;-86
2023/06/24 05:43:08;;;;;;;6.45;4.78;;;17.70;99.90;;;;;;6218115;23;20398;-88
2023/06/24 05:45:34;;;;;;;5.90;4.53;;;17.80;99.90;;;;;;6217808;23;20447;-89
2023/06/24 05:47:59;;;;;;;6.07;4.20;;;18.00;99.90;;;;;;6217472;23;20024;-85
2023/06/24 05:50:25;;;;;;;5.38;3.75;;;18.10;99.90;;;;;;6217928;23;20024;-86
2023/06/24 05:52:51;;;;;;;6.93;3.90;;;18.30;99.90;;;;;;6218310;23;20021;-87
2023/06/24 05:55:17;;;;;;;5.53;3.80;;;18.40;99.90;;;;;;6217996;23;20399;-87
2023/06/24 05:57:42;;;;;;;5.47;3.50;;;18.50;99.90;;;;;;6245370;23;20055;-87
2023/06/24 06:00:09;;;;;;;4.00;3.53;;;18.60;99.90;;;;;;6246221;23;20031;-87
2023/06/24 06:02:34;;;;;;;4.82;3.63;;;18.70;99.90;;;;;;6247223;23;20031;-87
2023/06/24 06:05:01;;;;;;;4.72;3.70;;;18.80;99.90;;;;;;6220340;23;20008;-87
2023/06/24 06:07:27;;;;;;;6.05;3.13;;;19.10;99.90;;;;;;6247770;23;20028;-87
2023/06/24 06:09:52;;;;;;;5.18;2.88;;;19.30;99.90;;;;;;6246467;23;20024;-87
2023/06/24 06:12:18;;;;;;;7.03;3.55;;;19.60;99.90;;;;;;6247267;23;20331;-87
2023/06/24 06:14:44;;;;;;;3.55;2.80;;;19.80;99.90;;;;;;6220423;23;20047;-88
2023/06/24 06:17:14;;;;;;;4.93;3.03;;;20.00;99.90;;;;;;6194772;23;20054;-88
2023/06/24 06:19:41;;;;;;;3.85;2.83;;;20.10;99.90;;;;;;6246929;23;20024;-87
2023/06/24 06:22:07;;;;;;;3.30;2.85;;;20.30;99.90;;;;;;6247641;23;20099;-86
2023/06/24 06:24:33;;;;;;;4.32;2.95;;;20.40;99.90;;;;;;6220349;23;20028;-85
2023/06/24 06:26:59;;;;;;;5.15;3.63;;;20.50;99.90;;;;;;6219685;23;20024;-85
2023/06/24 06:29:25;;;;;;;4.85;3.47;;;20.60;99.90;;;;;;6219355;23;20020;-84
2023/06/24 06:31:52;;;;;;;4.40;3.30;;;20.70;99.90;;;;;;6219667;23;20020;-85
2023/06/24 06:34:18;;;;;;;4.22;2.50;;;20.70;99.90;;;;;;6246856;23;20016;-85
2023/06/24 06:36:44;;;;;;;4.47;2.53;;;20.80;99.90;;;;;;6219845;23;20032;-86
2023/06/24 06:39:09;;;;;;;4.25;3.03;;;20.90;99.90;;;;;;6219235;23;20024;-88
2023/06/24 06:41:35;;;;;;;4.82;3.30;;;21.00;99.90;;;;;;6246686;23;20032;-88
2023/06/24 06:44:01;;;;;;;3.95;2.92;;;21.10;99.90;;;;;;6247397;23;20020;-86
2023/06/24 06:46:27;;;;;;;3.15;2.00;;;21.20;99.90;;;;;;6219955;23;20378;-88
2023/06/24 06:48:54;;;;;;;3.65;2.72;;;21.20;99.90;;;;;;6247626;23;20082;-85
2023/06/24 06:51:20;;;;;;;2.88;2.00;;;21.30;99.90;;;;;;6247429;23;20024;-85
2023/06/24 06:53:45;;;;;;;4.25;2.78;;;21.40;99.90;;;;;;6248314;23;20082;-85
2023/06/24 06:56:27;;;;;;;5.15;2.88;;;21.40;99.90;;;;;;6220460;23;20024;-87
2023/06/24 06:58:53;;;;;;;5.00;2.70;;;21.50;99.90;;;;;;6246903;23;20451;-84
2023/06/24 07:01:19;;;;;;;4.68;2.85;;;21.60;99.90;;;;;;6219354;23;20039;-86
2023/06/24 07:03:45;;;;;;;4.03;2.40;;;21.70;99.90;;;;;;6219410;23;20024;-85
2023/06/24 07:06:11;;;;;;;4.28;2.80;;;21.70;99.90;;;;;;6219229;23;20085;-86
2023/06/24 07:08:37;;;;;;;5.03;2.38;;;21.70;99.90;;;;;;6219106;23;20020;-87
2023/06/24 07:11:03;;;;;;;4.00;2.47;;;21.80;99.90;;;;;;6246666;23;20020;-86
2023/06/24 07:13:28;;;;;;;3.70;2.78;;;21.90;99.90;;;;;;6219177;23;20431;-86
2023/06/24 07:15:54;;;;;;;130.75;118.28;;;21.90;99.90;;;;;;6245822;23;20031;-85
2023/06/24 07:18:20;;;;;;;11.63;10.52;;;22.00;99.90;;;;;;6246521;23;20027;-87
2023/06/24 07:20:45;;;;;;;5.03;2.35;;;22.10;99.90;;;;;;6245811;23;20020;-84
2023/06/24 07:23:11;;;;;;;5.15;2.60;;;22.30;99.90;;;;;;6219127;23;20359;-85
2023/06/24 07:25:37;;;;;;;4.28;2.30;;;22.30;99.90;;;;;;6245454;23;20382;-85
2023/06/24 07:28:03;;;;;;;4.47;2.65;;;22.50;99.90;;;;;;6246127;23;20016;-86
2023/06/24 07:30:29;;;;;;;3.72;2.75;;;22.60;99.90;;;;;;6218838;23;20027;-88
2023/06/24 07:32:54;;;;;;;4.05;3.15;;;22.70;99.90;;;;;;6218812;23;20016;-85
2023/06/24 07:35:20;;;;;;;3.78;2.22;;;22.80;99.90;;;;;;6218821;23;20047;-89
2023/06/24 07:37:46;;;;;;;2.83;1.75;;;22.80;99.90;;;;;;6246066;23;20016;-91
2023/06/24 07:40:12;;;;;;;3.83;2.55;;;23.00;99.90;;;;;;6245343;23;20401;-88
2023/06/24 07:42:37;;;;;;;487.42;451.20;;;23.20;99.90;;;;;;6218835;23;20020;-86
2023/06/24 07:45:03;;;;;;;4.32;2.28;;;23.20;99.90;;;;;;6246515;23;20026;-85
2023/06/24 07:47:29;;;;;;;3.00;1.60;;;23.30;99.90;;;;;;6245807;23;20019;-87
2023/06/24 07:49:55;;;;;;;180.98;168.55;;;23.50;99.90;;;;;;6244583;23;20027;-87
2023/06/24 07:52:20;;;;;;;5.95;5.22;;;23.60;99.90;;;;;;6219434;23;20028;-84
2023/06/24 07:54:46;;;;;;;2.00;1.40;;;23.70;99.90;;;;;;6245658;23;20020;-85
2023/06/24 07:57:12;;;;;;;6.70;2.50;;;23.80;99.90;;;;;;6245375;23;20100;-84
2023/06/24 07:59:37;;;;;;;3.80;2.05;;;23.90;99.90;;;;;;6245309;23;20048;-83
2023/06/24 08:02:03;;;;;;;4.35;1.83;;;24.00;99.90;;;;;;6245884;23;20023;-83
2023/06/24 08:04:29;;;;;;;3.08;1.85;;;24.10;99.90;;;;;;6245423;23;20024;-85
2023/06/24 08:06:54;;;;;;;4.25;1.50;;;24.10;99.90;;;;;;6219968;23;20057;-82
2023/06/24 08:09:20;;;;;;;2.53;1.60;;;24.30;99.90;;;;;;6218859;23;20469;-82
2023/06/24 08:11:46;;;;;;;4.63;2.38;;;24.40;99.90;;;;;;6245715;23;20031;-85
2023/06/24 08:14:11;;;;;;;2.75;1.55;;;24.50;99.90;;;;;;6245660;23;20451;-85
2023/06/24 08:16:37;;;;;;;2.33;1.63;;;24.60;99.90;;;;;;6245423;23;20017;-83
2023/06/24 08:19:03;;;;;;;3.38;2.08;;;24.70;99.90;;;;;;6245553;23;20395;-84
2023/06/24 08:21:29;;;;;;;2.83;1.92;;;24.80;99.90;;;;;;6245234;23;20051;-85
2023/06/24 08:23:55;;;;;;;8.70;7.03;;;24.90;99.90;;;;;;6245820;23;20016;-84
2023/06/24 08:26:23;;;;;;;405.00;374.73;;;25.00;99.90;;;;;;6246002;23;20082;-84
2023/06/24 08:28:49;;;;;;;321.55;295.42;;;25.00;99.90;;;;;;6245686;23;20016;-84
2023/06/24 08:31:15;;;;;;;2.95;1.70;;;24.90;99.90;;;;;;6244779;23;20095;-84
2023/06/24 08:33:46;;;;;;;382.92;353.27;;;25.00;99.90;;;;;;6244979;23;20454;-83
2023/06/24 08:36:12;;;;;;;3.03;2.03;;;25.10;99.90;;;;;;6245578;23;20091;-84
2023/06/24 08:38:38;;;;;;;4.45;2.17;;;25.00;99.90;;;;;;6218842;23;20051;-84
2023/06/24 08:41:03;;;;;;;443.02;401.42;;;25.00;99.90;;;;;;6218334;23;20332;-84
2023/06/24 08:43:29;;;;;;;1003.85;823.08;;;25.00;99.90;;;;;;6245543;23;20015;-84
2023/06/24 08:45:55;;;;;;;444.55;365.65;;;25.20;99.90;;;;;;6218438;23;20438;-83
2023/06/24 08:48:21;;;;;;;575.63;524.15;;;25.20;99.90;;;;;;6218476;23;20019;-84
2023/06/24 08:50:52;;;;;;;595.33;529.33;;;25.40;99.90;;;;;;6245291;23;20056;-84
2023/06/24 08:53:20;;;;;;;1064.32;815.50;;;25.60;99.90;;;;;;6219072;23;20044;-84
2023/06/24 08:55:46;;;;;;;1175.78;870.80;;;25.70;99.90;;;;;;6218293;23;20481;-84
2023/06/24 08:58:12;;;;;;;4.45;2.10;;;25.90;99.90;;;;;;6218339;23;20053;-84
2023/06/24 09:00:39;;;;;;;3.67;1.70;;;26.20;99.90;;;;;;6217727;23;20126;-84
2023/06/24 09:03:04;;;;;;;4.32;1.70;;;26.40;99.90;;;;;;6217516;23;20024;-82
2023/06/24 09:05:30;;;;;;;1034.65;691.10;;;26.40;99.90;;;;;;6244167;23;20385;-81
2023/06/24 09:07:56;;;;;;;1043.53;682.80;;;26.50;99.50;;;;;;6218082;23;20028;-85
2023/06/24 09:10:36;;;;;;;2.72;1.63;;;26.60;98.80;;;;;;6218239;23;20047;-85
2023/06/24 09:13:05;;;;;;;2.83;2.05;;;26.80;99.90;;;;;;6218154;23;20052;-83
2023/06/24 09:15:35;;;;;;;2.67;1.80;;;27.10;99.10;;;;;;6217264;23;20343;-84
2023/06/24 09:18:01;;;;;;;701.78;451.90;;;27.30;99.40;;;;;;6244813;23;20125;-84
2023/06/24 09:20:31;;;;;;;1234.82;875.85;;;27.20;97.70;;;;;;6243481;23;20028;-84
2023/06/24 09:23:04;;;;;;;4.07;1.90;;;27.30;99.30;;;;;;6218254;23;20020;-84
2023/06/24 09:25:30;;;;;;;4.15;2.22;;;27.30;98.00;;;;;;6218377;23;20020;-83
2023/06/24 09:28:03;;;;;;;243.82;179.48;;;27.30;97.10;;;;;;6244698;23;20026;-85
2023/06/24 09:30:29;;;;;;;367.13;185.50;;;27.20;97.60;;;;;;6218538;23;20020;-85
2023/06/24 09:32:55;;;;;;;4.15;2.25;;;27.50;97.30;;;;;;6245238;23;20335;-85
2023/06/24 09:35:23;;;;;;;2.13;1.33;;;27.60;97.20;;;;;;6194419;23;20020;-84
2023/06/24 09:37:56;;;;;;;2.78;1.70;;;27.90;98.80;;;;;;6220083;23;20024;-84
2023/06/24 09:40:22;;;;;;;3.10;1.95;;;28.10;97.60;;;;;;6247222;23;20012;-85
2023/06/24 09:42:56;;;;;;;3.38;1.92;;;28.10;96.60;;;;;;6220234;23;20020;-85
2023/06/24 09:45:29;;;;;;;5.50;2.00;;;28.10;96.60;;;;;;6220171;23;20016;-85
2023/06/24 09:47:57;;;;;;;3.15;1.60;;;28.00;95.80;;;;;;6220051;23;20521;-82
2023/06/24 09:50:23;;;;;;;2.58;1.35;;;28.10;97.60;;;;;;6220150;23;20024;-83
2023/06/24 09:52:51;;;;;;;2.33;1.33;;;28.20;97.10;;;;;;6246572;23;20528;-82
2023/06/24 09:55:17;;;;;;;3.88;1.95;;;28.20;96.50;;;;;;6247132;23;20075;-85
2023/06/24 09:57:50;;;;;;;5.78;2.00;;;28.20;96.20;;;;;;6247219;23;20028;-83
2023/06/24 10:00:19;;;;;;;3.30;1.52;;;28.20;95.20;;;;;;6220146;23;20016;-83
2023/06/24 10:02:46;;;;;;;12.25;2.35;;;28.50;96.70;;;;;;6246963;23;20028;-83
2023/06/24 10:05:15;;;;;;;3.33;1.30;;;28.70;97.00;;;;;;6247021;23;20062;-84
2023/06/24 10:07:42;;;;;;;4.05;1.90;;;29.10;97.40;;;;;;6220434;23;20031;-84
2023/06/24 10:10:09;;;;;;;2.00;1.20;;;29.20;95.70;;;;;;6247185;23;20078;-83
2023/06/24 10:12:35;;;;;;;2.08;1.40;;;29.40;94.10;;;;;;6247180;23;20039;-87
2023/06/24 10:15:02;;;;;;;3.15;2.10;;;29.50;94.60;;;;;;6220462;23;20020;-82
2023/06/24 10:17:27;;;;;;;3.53;2.03;;;29.50;93.50;;;;;;6247437;23;20385;-83
2023/06/24 10:19:56;;;;;;;3.75;1.77;;;29.40;92.60;;;;;;6220969;23;20024;-83
2023/06/24 10:22:25;;;;;;;4.80;1.77;;;29.40;93.70;;;;;;6247070;23;20024;-82
2023/06/24 10:24:56;;;;;;;3.53;1.60;;;29.60;93.00;;;;;;6221707;23;20020;-82
2023/06/24 10:27:23;;;;;;;4.45;2.15;;;29.80;93.90;;;;;;6221293;23;20354;-83
2023/06/24 10:29:50;;;;;;;3.95;1.80;;;29.90;93.20;;;;;;6221437;23;20020;-83
2023/06/24 10:32:19;;;;;;;3.80;1.50;;;30.00;91.70;;;;;;6248634;23;20024;-86
2023/06/24 10:34:47;;;;;;;3.50;1.67;;;30.00;92.10;;;;;;6248455;23;20024;-83
2023/06/24 10:37:20;;;;;;;2.47;1.20;;;30.20;92.90;;;;;;6221171;23;20088;-82
2023/06/24 10:39:54;;;;;;;3.22;1.33;;;30.30;92.60;;;;;;6249837;23;20023;-85
2023/06/24 10:42:42;;;;;;;2.78;1.30;;;30.40;92.70;;;;;;6258247;23;20024;-83
2023/06/24 10:45:11;;;;;;;3.45;1.30;;;30.70;91.50;;;;;;6254150;23;20020;-82
2023/06/24 10:47:38;;;;;;;2.08;1.40;;;30.80;91.30;;;;;;6250903;23;20347;-83
2023/06/24 10:50:05;;;;;;;2.47;1.27;;;31.00;92.90;;;;;;6249569;23;20466;-86
2023/06/24 10:52:31;;;;;;;2.35;1.42;;;31.10;90.10;;;;;;6251826;23;20020;-88
2023/06/24 10:54:58;;;;;;;990.23;603.47;;;31.10;91.20;;;;;;6254459;23;20091;-90
2023/06/24 10:57:26;;;;;;;1.45;1.10;;;31.10;91.00;;;;;;6262315;23;20016;-92
2023/06/24 10:59:56;;;;;;;1213.43;902.30;;;31.40;90.90;;;;;;6224575;23;20027;-94
2023/06/24 11:02:24;;;;;;;1239.65;767.97;;;31.60;91.40;;;;;;6255031;23;20072;-88
2023/06/24 11:04:52;;;;;;;1247.78;767.53;;;31.60;87.60;;;;;;6226049;23;20083;-89
2023/06/24 11:07:20;;;;;;;1246.90;744.47;;;31.50;90.60;;;;;;6252239;23;20016;-91
2023/06/24 11:09:53;;;;;;;1250.90;750.90;;;31.70;91.10;;;;;;6252156;23;20020;-89
2023/06/24 11:12:19;;;;;;;1264.10;735.33;;;31.80;89.40;;;;;;6253698;23;20020;-88
2023/06/24 11:14:45;;;;;;;1273.07;907.33;;;31.50;90.20;;;;;;6249733;23;20024;-85
2023/06/24 11:17:11;;;;;;;1289.37;902.67;;;31.70;89.20;;;;;;6202233;23;20016;-90
2023/06/24 11:19:39;;;;;;;1265.77;857.97;;;31.70;88.70;;;;;;6253308;23;20044;-84
2023/06/24 11:22:07;;;;;;;1162.80;729.13;;;31.90;89.50;;;;;;6253868;23;20107;-86
2023/06/24 11:24:33;;;;;;;1265.47;888.60;;;31.70;90.70;;;;;;6232581;23;20067;-93
2023/06/24 11:26:59;;;;;;;1277.37;853.37;;;31.70;90.70;;;;;;6251764;23;20020;-83
2023/06/24 11:29:29;;;;;;;1022.25;927.97;;;31.70;89.80;;;;;;6198106;23;20043;-82
2023/06/24 11:31:55;;;;;;;633.40;586.83;;;31.70;88.40;;;;;;6249590;23;20087;-85
2023/06/24 11:34:21;;;;;;;289.00;268.70;;;31.70;90.00;;;;;;6221920;23;20513;-82
2023/06/24 11:36:48;;;;;;;10.32;9.63;;;31.50;89.40;;;;;;6248825;23;20346;-87
2023/06/24 11:39:28;;;;;;;26.60;24.65;;;31.30;90.50;;;;;;6248731;23;20335;-83
2023/06/24 11:41:57;;;;;;;310.65;283.58;;;31.00;90.00;;;;;;6221692;23;20071;-82
2023/06/24 11:44:26;;;;;;;72.85;66.38;;;30.80;89.70;;;;;;6250168;23;20020;-83
2023/06/24 11:46:52;;;;;;;5.88;5.40;;;30.70;90.80;;;;;;6248866;23;20023;-82
2023/06/24 11:49:19;;;;;;;781.28;715.83;;;30.40;90.60;;;;;;6248961;23;20020;-84
2023/06/24 11:51:54;;;;;;;2.17;1.98;;;30.70;90.90;;;;;;6251228;23;20020;-85
2023/06/24 11:54:21;;;;;;;2.30;1.10;;;31.00;90.40;;;;;;6250819;23;20066;-84
2023/06/24 11:56:51;;;;;;;2.10;0.80;;;31.40;89.50;;;;;;6221258;23;20012;-82
2023/06/24 11:59:23;;;;;;;1.63;0.90;;;31.40;88.60;;;;;;6223384;23;20022;-84
2023/06/24 12:01:57;;;;;;;2.05;1.42;;;31.10;89.30;;;;;;6222351;23;20012;-82
2023/06/24 12:11:34;;;;;;;4.65;2.50;;;30.30;87.10;;;;;;6251036;23;20351;-83
2023/06/24 12:14:00;;;;;;;2.17;1.15;;;30.40;88.00;;;;;;6248492;23;20016;-82
2023/06/24 12:16:26;;;;;;;5.88;5.47;;;30.50;87.10;;;;;;6220892;23;20016;-84
2023/06/24 12:18:52;;;;;;;162.10;147.80;;;30.70;88.30;;;;;;6196094;23;20103;-82
2023/06/24 12:21:19;;;;;;;10.45;9.68;;;30.70;86.10;;;;;;6246874;23;20393;-87
2023/06/24 12:23:45;;;;;;;3.00;1.13;;;30.90;88.30;;;;;;6250413;23;20320;-82
2023/06/24 12:26:11;;;;;;;1.50;1.02;;;31.20;87.20;;;;;;6220636;23;20020;-83
2023/06/24 12:28:37;;;;;;;3.00;1.60;;;31.10;87.00;;;;;;6221678;23;20269;-83
2023/06/24 12:31:03;;;;;;;4.65;1.30;;;30.90;88.00;;;;;;6247544;23;20089;-83
2023/06/24 12:33:29;;;;;;;1.35;0.90;;;30.60;85.10;;;;;;6248659;23;20020;-83
2023/06/24 12:35:55;;;;;;;3.20;1.30;;;30.50;88.40;;;;;;6220420;23;20020;-85
2023/06/24 12:38:20;;;;;;;2.65;1.13;;;30.40;87.70;;;;;;6247194;23;20044;-83
2023/06/24 12:40:47;;;;;;;4.90;2.15;;;30.30;90.30;;;;;;6244150;23;20381;-83
2023/06/24 12:43:13;;;;;;;9.07;2.75;;;29.60;92.20;;;;;;6193461;23;20024;-82
2023/06/24 12:45:43;;;;;;;5.10;2.05;;;29.40;92.70;;;;;;6245307;23;20030;-83
2023/06/24 12:48:09;;;;;;;4.03;2.22;;;29.30;93.60;;;;;;6245674;23;20016;-83
2023/06/24 12:50:35;;;;;;;7.97;4.18;;;29.10;94.30;;;;;;6245204;23;20031;-83